Time;durP1;ratioP1;P1;durP2;ratioP2;P2;SDS_P1;SDS_P2;PMS_P1;PMS_P2;Temp;Humidity;BMP_temperature;BMP_pressure;BME280_temperature;BME280_humidity;BME280_pressure;Samples;Min_cycle;Max_cycle;Signal;HPM_P1;HPM_P2
2022/05/30 00:01:07;;;;;;;;;;;20.20;62.70;;;;;;5045959;27;83195;-42
2022/05/30 00:03:33;;;;;;;;;;;20.20;62.60;;;;;;5044600;28;84006;-43
2022/05/30 00:05:58;;;;;;;;;;;20.20;62.60;;;;;;5046107;28;82088;-45
2022/05/30 00:08:24;;;;;;;;;;;20.20;62.60;;;;;;5048765;28;82398;-44
2022/05/30 00:10:49;;;;;;;;;;;20.20;62.60;;;;;;5045639;28;82063;-43
2022/05/30 00:13:15;;;;;;;;;;;20.20;62.60;;;;;;5045916;28;82410;-43
2022/05/30 00:15:41;;;;;;;;;;;20.20;62.60;;;;;;5045651;28;81977;-43
2022/05/30 00:18:09;;;;;;;;;;;20.20;62.60;;;;;;5045615;28;82053;-46
2022/05/30 00:20:36;;;;;;;;;;;20.10;62.60;;;;;;5046135;28;83873;-44
2022/05/30 00:23:02;;;;;;;;;;;20.10;62.70;;;;;;5045462;28;84505;-43
2022/05/30 00:25:28;;;;;;;;;;;20.10;62.60;;;;;;5045583;28;81982;-45
2022/05/30 00:27:53;;;;;;;;;;;20.10;62.60;;;;;;5045170;27;82854;-44
2022/05/30 00:30:19;;;;;;;;;;;20.00;62.70;;;;;;5048322;28;83590;-44
2022/05/30 00:32:44;;;;;;;;;;;20.10;62.60;;;;;;5045698;27;82385;-43
2022/05/30 00:35:11;;;;;;;;;;;20.00;62.70;;;;;;5045646;28;83012;-43
2022/05/30 00:37:36;;;;;;;;;;;20.00;62.60;;;;;;5045580;28;82077;-44
2022/05/30 00:40:02;;;;;;;;;;;20.00;62.50;;;;;;5045433;28;82897;-44
2022/05/30 00:42:28;;;;;;;;;;;20.00;62.60;;;;;;5045450;28;82804;-44
2022/05/30 00:44:54;;;;;;;;;;;20.00;62.50;;;;;;5046191;28;81351;-47
2022/05/30 00:47:20;;;;;;;;;;;20.00;62.60;;;;;;5045699;27;81950;-43
2022/05/30 00:49:47;;;;;;;;;;;20.00;62.60;;;;;;5045439;28;83107;-43
2022/05/30 00:52:20;;;;;;;;;;;19.90;62.60;;;;;;5047121;27;82982;-43
2022/05/30 00:54:52;;;;;;;;;;;20.00;62.60;;;;;;5045112;28;83087;-43
2022/05/30 00:57:21;;;;;;;;;;;19.90;62.60;;;;;;5045205;28;82066;-44
2022/05/30 01:00:00;;;;;;;;;;;19.90;62.70;;;;;;5045613;27;82215;-44
2022/05/30 01:02:29;;;;;;;;;;;19.90;62.50;;;;;;5044723;28;83023;-44
2022/05/30 01:07:41;;;;;;;;;;;19.80;62.60;;;;;;5042793;28;81849;-45
2022/05/30 01:10:09;;;;;;;;;;;19.80;62.60;;;;;;5045486;28;83765;-44
2022/05/30 01:12:49;;;;;;;;;;;19.80;62.60;;;;;;5045128;27;82160;-44
2022/05/30 01:15:15;;;;;;;;;;;19.80;62.70;;;;;;5048071;27;82429;-44
2022/05/30 01:17:46;;;;;;;;;;;19.80;62.70;;;;;;5047756;28;83017;-43
2022/05/30 01:20:31;;;;;;;;;;;19.70;62.60;;;;;;5048504;27;84729;-44
2022/05/30 01:23:02;;;;;;;;;;;19.70;62.70;;;;;;5048510;27;82367;-44
2022/05/30 01:25:30;;;;;;;;;;;19.70;62.60;;;;;;5048455;28;82098;-43
2022/05/30 01:27:56;;;;;;;;;;;19.70;62.60;;;;;;5048405;28;83065;-44
2022/05/30 01:30:21;;;;;;;;;;;19.70;62.60;;;;;;5047843;28;83302;-43
2022/05/30 01:32:47;;;;;;;;;;;19.70;62.60;;;;;;5048241;28;82107;-44
2022/05/30 01:35:20;;;;;;;;;;;19.70;62.80;;;;;;5048944;27;82261;-44
2022/05/30 01:37:45;;;;;;;;;;;19.60;62.70;;;;;;5050885;28;83166;-42
2022/05/30 01:40:11;;;;;;;;;;;19.70;62.60;;;;;;5048417;28;82091;-45
2022/05/30 01:42:36;;;;;;;;;;;19.60;62.60;;;;;;5047276;28;83121;-44
2022/05/30 01:45:03;;;;;;;;;;;19.60;62.60;;;;;;5048110;28;82115;-44
2022/05/30 01:47:28;;;;;;;;;;;19.60;62.70;;;;;;5048067;27;82276;-43
2022/05/30 01:49:54;;;;;;;;;;;19.50;62.70;;;;;;5047979;28;83106;-45
2022/05/30 01:52:19;;;;;;;;;;;19.50;62.80;;;;;;5047775;28;82095;-43
2022/05/30 01:54:45;;;;;;;;;;;19.60;62.80;;;;;;5048121;28;82374;-44
2022/05/30 01:57:10;;;;;;;;;;;19.50;62.80;;;;;;5047918;28;82933;-44
2022/05/30 01:59:36;;;;;;;;;;;19.50;62.70;;;;;;5051193;28;81833;-44
2022/05/30 02:02:02;;;;;;;;;;;19.50;62.70;;;;;;5047353;28;84275;-43
2022/05/30 02:04:27;;;;;;;;;;;19.50;62.80;;;;;;5047773;28;82092;-43
2022/05/30 02:06:52;;;;;;;;;;;19.50;62.80;;;;;;5047287;28;82776;-43
2022/05/30 02:09:18;;;;;;;;;;;19.40;62.70;;;;;;5047664;28;83443;-44
2022/05/30 02:11:43;;;;;;;;;;;19.50;62.60;;;;;;5047675;28;82108;-43
2022/05/30 02:14:10;;;;;;;;;;;19.40;62.70;;;;;;5047804;28;82268;-44
2022/05/30 02:19:21;;;;;;;;;;;19.40;62.70;;;;;;5050567;28;81973;-45
2022/05/30 02:21:46;;;;;;;;;;;19.40;62.70;;;;;;5047156;28;85051;-44
2022/05/30 02:24:12;;;;;;;;;;;19.30;62.70;;;;;;5047911;28;81250;-44
2022/05/30 02:26:38;;;;;;;;;;;19.30;62.70;;;;;;5047442;27;82005;-43
2022/05/30 02:29:04;;;;;;;;;;;19.30;62.60;;;;;;5047347;28;82944;-45
2022/05/30 02:31:29;;;;;;;;;;;19.40;62.70;;;;;;5046757;28;82941;-44
2022/05/30 02:36:39;;;;;;;;;;;19.20;62.80;;;;;;5047541;28;82242;-43
2022/05/30 02:39:05;;;;;;;;;;;19.30;62.80;;;;;;5047369;28;82037;-44
2022/05/30 02:41:31;;;;;;;;;;;19.20;62.70;;;;;;5049565;27;83777;-43
2022/05/30 02:43:57;;;;;;;;;;;19.20;62.80;;;;;;5047229;28;82065;-44
2022/05/30 02:46:22;;;;;;;;;;;19.20;62.80;;;;;;5046974;27;83782;-44
2022/05/30 02:48:48;;;;;;;;;;;19.20;62.80;;;;;;5047495;28;82058;-43
2022/05/30 02:51:14;;;;;;;;;;;19.20;62.90;;;;;;5046529;28;81975;-43
2022/05/30 02:53:39;;;;;;;;;;;19.10;62.90;;;;;;5047161;28;82439;-44
2022/05/30 02:56:05;;;;;;;;;;;19.10;62.90;;;;;;5045914;28;83946;-43
2022/05/30 02:58:31;;;;;;;;;;;19.20;62.80;;;;;;5046936;28;82126;-44
2022/05/30 03:00:56;;;;;;;;;;;19.10;62.80;;;;;;5046671;27;83810;-44
2022/05/30 03:03:22;;;;;;;;;;;19.10;62.90;;;;;;5049286;28;83155;-46
2022/05/30 03:05:47;;;;;;;;;;;19.10;62.90;;;;;;5046979;27;82383;-45
2022/05/30 03:08:13;;;;;;;;;;;19.10;62.90;;;;;;5046568;28;83021;-43
2022/05/30 03:10:38;;;;;;;;;;;19.10;62.90;;;;;;5046811;28;82146;-46
2022/05/30 03:13:05;;;;;;;;;;;19.10;62.90;;;;;;5047440;28;82347;-45
2022/05/30 03:15:31;;;;;;;;;;;19.10;62.80;;;;;;5046321;28;83398;-43
2022/05/30 03:17:57;;;;;;;;;;;19.00;62.70;;;;;;5046729;28;82074;-45
2022/05/30 03:20:22;;;;;;;;;;;19.10;62.70;;;;;;5046132;27;82904;-45
2022/05/30 03:22:48;;;;;;;;;;;19.00;62.90;;;;;;5046469;28;82200;-45
2022/05/30 03:25:14;;;;;;;;;;;19.00;62.90;;;;;;5049118;28;82087;-44
2022/05/30 03:27:39;;;;;;;;;;;18.90;62.90;;;;;;5046315;28;83022;-43
2022/05/30 03:30:06;;;;;;;;;;;19.00;62.90;;;;;;5046407;28;82130;-43
2022/05/30 03:32:31;;;;;;;;;;;18.90;62.90;;;;;;5046228;28;84726;-46
2022/05/30 03:34:57;;;;;;;;;;;18.90;62.90;;;;;;5046352;28;83127;-45
2022/05/30 03:37:22;;;;;;;;;;;18.90;63.60;;;;;;5046869;28;81337;-43
2022/05/30 03:39:48;;;;;;;;;;;18.90;63.00;;;;;;5045870;27;81852;-44
2022/05/30 03:42:14;;;;;;;;;;;18.90;63.00;;;;;;5045997;28;82978;-45
2022/05/30 03:44:40;;;;;;;;;;;18.90;63.00;;;;;;5045707;28;82801;-45
2022/05/30 03:47:06;;;;;;;;;;;18.90;63.00;;;;;;5048684;28;83414;-44
2022/05/30 03:49:31;;;;;;;;;;;18.90;62.90;;;;;;5046318;28;82102;-44
2022/05/30 03:51:58;;;;;;;;;;;18.90;63.00;;;;;;5046090;28;82486;-44
2022/05/30 03:54:23;;;;;;;;;;;18.80;62.90;;;;;;5045822;28;83125;-43
2022/05/30 03:56:49;;;;;;;;;;;18.80;63.10;;;;;;5045952;28;82128;-44
2022/05/30 03:59:14;;;;;;;;;;;18.80;63.00;;;;;;5046263;28;82406;-43
2022/05/30 04:01:40;;;;;;;;;;;18.80;63.10;;;;;;5046412;28;82035;-43
2022/05/30 04:04:05;;;;;;;;;;;18.80;62.90;;;;;;5045658;28;82207;-43
2022/05/30 04:06:31;;;;;;;;;;;18.80;62.90;;;;;;5048686;28;82530;-44
2022/05/30 04:08:56;;;;;;;;;;;18.80;63.00;;;;;;5045517;28;83173;-44
2022/05/30 04:11:22;;;;;;;;;;;18.70;62.90;;;;;;5045781;28;83326;-44
2022/05/30 04:13:48;;;;;;;;;;;18.70;63.10;;;;;;5045738;28;82765;-42
2022/05/30 04:16:13;;;;;;;;;;;18.70;63.10;;;;;;5045817;28;82091;-43
2022/05/30 04:18:39;;;;;;;;;;;18.70;63.00;;;;;;5046158;27;82250;-44
2022/05/30 04:21:06;;;;;;;;;;;18.70;63.00;;;;;;5045779;28;83051;-44
2022/05/30 04:23:31;;;;;;;;;;;18.70;63.10;;;;;;5045901;28;81842;-43
2022/05/30 04:25:57;;;;;;;;;;;18.70;62.90;;;;;;5046049;28;82467;-43
2022/05/30 04:28:22;;;;;;;;;;;18.70;63.10;;;;;;5047963;28;84381;-45
2022/05/30 04:30:48;;;;;;;;;;;18.60;63.10;;;;;;5045595;27;83926;-44
2022/05/30 04:33:13;;;;;;;;;;;18.60;63.00;;;;;;5044849;28;84127;-44
2022/05/30 04:35:41;;;;;;;;;;;18.60;63.10;;;;;;5045645;28;82114;-43
2022/05/30 04:38:07;;;;;;;;;;;18.70;63.10;;;;;;5045630;27;82676;-43
2022/05/30 04:40:32;;;;;;;;;;;18.60;62.90;;;;;;5045370;28;83002;-44
2022/05/30 04:42:58;;;;;;;;;;;18.60;63.00;;;;;;5045754;28;81979;-44
2022/05/30 04:45:24;;;;;;;;;;;18.60;63.20;;;;;;5045707;27;81916;-42
2022/05/30 04:47:49;;;;;;;;;;;18.60;63.20;;;;;;5045357;28;83256;-43
2022/05/30 04:50:16;;;;;;;;;;;18.60;63.10;;;;;;5048649;27;81279;-44
2022/05/30 04:52:42;;;;;;;;;;;18.60;63.00;;;;;;5049036;28;82499;-43
2022/05/30 04:55:08;;;;;;;;;;;18.60;63.00;;;;;;5048657;28;82438;-42
2022/05/30 04:57:39;;;;;;;;;;;18.60;63.00;;;;;;5048508;27;82963;-44
2022/05/30 05:00:05;;;;;;;;;;;18.60;63.00;;;;;;5048879;28;82238;-43
2022/05/30 05:02:31;;;;;;;;;;;18.60;63.00;;;;;;5048887;28;82000;-43
2022/05/30 05:04:56;;;;;;;;;;;18.60;63.10;;;;;;5048758;28;82428;-42
2022/05/30 05:07:22;;;;;;;;;;;18.60;62.90;;;;;;5048786;28;83007;-43
2022/05/30 05:09:52;;;;;;;;;;;18.60;63.00;;;;;;5048918;28;81898;-43
2022/05/30 05:12:17;;;;;;;;;;;18.60;63.00;;;;;;5051180;27;83625;-43
2022/05/30 05:14:43;;;;;;;;;;;18.60;63.20;;;;;;5048905;28;81468;-43
2022/05/30 05:17:09;;;;;;;;;;;18.50;63.20;;;;;;5048634;28;81999;-45
2022/05/30 05:19:36;;;;;;;;;;;18.50;63.20;;;;;;5048487;28;83233;-44
2022/05/30 05:22:02;;;;;;;;;;;18.60;63.10;;;;;;5047986;28;82909;-42
2022/05/30 05:24:27;;;;;;;;;;;18.60;63.10;;;;;;5048246;27;84506;-43
2022/05/30 05:26:53;;;;;;;;;;;18.60;63.00;;;;;;5048504;28;82420;-43
2022/05/30 05:29:19;;;;;;;;;;;18.60;63.20;;;;;;5048403;28;81989;-43
2022/05/30 05:31:44;;;;;;;;;;;18.60;63.30;;;;;;5048165;27;83701;-43
2022/05/30 05:34:11;;;;;;;;;;;18.60;63.20;;;;;;5051059;28;82880;-43
2022/05/30 05:36:38;;;;;;;;;;;18.60;63.20;;;;;;5048575;27;82233;-44
2022/05/30 05:39:04;;;;;;;;;;;18.60;63.10;;;;;;5048437;28;82486;-44
2022/05/30 05:41:30;;;;;;;;;;;18.60;63.20;;;;;;5048140;28;82092;-45
2022/05/30 05:43:56;;;;;;;;;;;18.70;63.20;;;;;;5048077;27;83841;-44
2022/05/30 05:46:23;;;;;;;;;;;18.60;63.20;;;;;;5047288;28;83964;-43
2022/05/30 05:48:50;;;;;;;;;;;18.70;63.30;;;;;;5048216;28;81973;-44
2022/05/30 05:51:17;;;;;;;;;;;18.60;63.50;;;;;;5047339;28;82092;-43
2022/05/30 05:53:43;;;;;;;;;;;18.60;63.40;;;;;;5047509;28;84540;-44
2022/05/30 05:56:12;;;;;;;;;;;18.70;63.30;;;;;;5050675;28;82049;-42
2022/05/30 05:58:38;;;;;;;;;;;18.60;63.30;;;;;;5047602;28;82812;-43
2022/05/30 06:01:10;;;;;;;;;;;18.60;63.60;;;;;;5047491;27;82083;-44
2022/05/30 06:03:36;;;;;;;;;;;18.60;63.50;;;;;;5048088;27;82627;-43
2022/05/30 06:06:05;;;;;;;;;;;18.60;63.40;;;;;;5047755;28;82973;-42
2022/05/30 06:08:30;;;;;;;;;;;18.70;63.50;;;;;;5048008;28;81833;-43
2022/05/30 06:11:05;;;;;;;;;;;18.70;63.50;;;;;;5047274;28;83507;-43
2022/05/30 06:13:37;;;;;;;;;;;18.70;63.30;;;;;;5047768;28;83011;-45
2022/05/30 06:16:10;;;;;;;;;;;18.70;63.30;;;;;;5050308;28;82019;-44
2022/05/30 06:18:36;;;;;;;;;;;18.70;63.30;;;;;;5047498;28;83203;-45
2022/05/30 06:21:01;;;;;;;;;;;18.70;63.20;;;;;;5047739;28;81991;-44
2022/05/30 06:23:27;;;;;;;;;;;18.70;63.20;;;;;;5047843;27;82214;-44
2022/05/30 06:25:53;;;;;;;;;;;18.70;63.50;;;;;;5047283;28;84299;-43
2022/05/30 06:28:19;;;;;;;;;;;18.70;63.50;;;;;;5048018;28;81291;-45
2022/05/30 06:30:44;;;;;;;;;;;18.70;63.30;;;;;;5047670;27;81943;-42
2022/05/30 06:33:10;;;;;;;;;;;18.70;63.30;;;;;;5046858;28;83005;-42
2022/05/30 06:35:39;;;;;;;;;;;18.70;63.30;;;;;;5046594;28;82953;-44
2022/05/30 06:38:04;;;;;;;;;;;18.70;63.20;;;;;;5049772;27;83253;-43
2022/05/30 06:40:30;;;;;;;;;;;18.70;63.50;;;;;;5047309;28;82023;-44
2022/05/30 06:42:55;;;;;;;;;;;18.70;63.40;;;;;;5047413;28;82696;-42
2022/05/30 06:45:21;;;;;;;;;;;18.70;63.50;;;;;;5047161;28;82749;-45
2022/05/30 06:47:46;;;;;;;;;;;18.70;63.20;;;;;;5047378;28;81734;-43
2022/05/30 06:50:12;;;;;;;;;;;18.70;63.40;;;;;;5046771;28;82464;-43
2022/05/30 06:52:38;;;;;;;;;;;18.70;63.20;;;;;;5047426;28;82441;-43
2022/05/30 06:55:03;;;;;;;;;;;18.80;63.30;;;;;;5046970;28;82018;-44
2022/05/30 07:00:15;;;;;;;;;;;18.80;63.30;;;;;;5049190;28;82881;-45
2022/05/30 07:02:41;;;;;;;;;;;18.80;63.30;;;;;;5046645;27;82557;-43
2022/05/30 07:05:06;;;;;;;;;;;18.80;63.40;;;;;;5046520;28;82093;-43
2022/05/30 07:07:32;;;;;;;;;;;18.80;63.40;;;;;;5046868;28;82123;-43
2022/05/30 07:09:57;;;;;;;;;;;18.80;63.50;;;;;;5046968;28;82398;-44
2022/05/30 07:12:23;;;;;;;;;;;18.80;63.70;;;;;;5046523;27;82793;-44
2022/05/30 07:14:48;;;;;;;;;;;18.80;63.20;;;;;;5045958;28;81960;-47
2022/05/30 07:17:16;;;;;;;;;;;18.80;63.50;;;;;;5046908;28;82649;-45
2022/05/30 07:19:42;;;;;;;;;;;18.70;63.50;;;;;;5046680;28;82907;-42
2022/05/30 07:22:10;;;;;;;;;;;18.80;63.50;;;;;;5049311;28;82031;-43
2022/05/30 07:24:36;;;;;;;;;;;18.80;63.20;;;;;;5045493;28;85324;-42
2022/05/30 07:27:02;;;;;;;;;;;18.80;63.30;;;;;;5046605;28;81985;-43
2022/05/30 07:29:28;;;;;;;;;;;18.80;63.10;;;;;;5046660;27;83832;-45
2022/05/30 07:32:00;;;;;;;;;;;18.80;63.10;;;;;;5046069;28;83226;-43
2022/05/30 07:34:26;;;;;;;;;;;18.80;63.30;;;;;;5046300;28;82018;-43
2022/05/30 07:36:52;;;;;;;;;;;18.90;63.10;;;;;;5045075;28;85502;-45
2022/05/30 07:39:18;;;;;;;;;;;18.80;63.10;;;;;;5046482;28;83335;-43
2022/05/30 07:41:44;;;;;;;;;;;18.80;63.20;;;;;;5046658;28;81332;-47
2022/05/30 07:44:09;;;;;;;;;;;18.80;63.40;;;;;;5048755;27;83031;-43
2022/05/30 07:46:35;;;;;;;;;;;18.80;63.30;;;;;;5045921;28;82021;-43
2022/05/30 07:49:00;;;;;;;;;;;18.90;63.40;;;;;;5046022;27;83020;-43
2022/05/30 07:51:26;;;;;;;;;;;18.80;63.10;;;;;;5045980;28;82624;-43
2022/05/30 07:54:01;;;;;;;;;;;18.90;63.10;;;;;;5046363;28;82107;-43
2022/05/30 07:56:27;;;;;;;;;;;18.80;63.30;;;;;;5046209;28;82477;-43
2022/05/30 07:58:53;;;;;;;;;;;18.90;63.10;;;;;;5045685;28;84962;-42
2022/05/30 08:01:19;;;;;;;;;;;18.90;63.30;;;;;;5046062;28;82077;-42
2022/05/30 08:03:45;;;;;;;;;;;18.90;63.30;;;;;;5045787;28;82487;-43
2022/05/30 08:06:12;;;;;;;;;;;18.90;63.10;;;;;;5049182;28;82013;-44
2022/05/30 08:08:41;;;;;;;;;;;18.90;63.00;;;;;;5046087;27;83380;-42
2022/05/30 08:11:07;;;;;;;;;;;18.90;63.30;;;;;;5045919;28;82439;-44
2022/05/30 08:13:33;;;;;;;;;;;18.90;63.10;;;;;;5045339;28;82862;-45
2022/05/30 08:15:58;;;;;;;;;;;18.90;64.00;;;;;;5045732;28;84006;-43
2022/05/30 08:18:24;;;;;;;;;;;18.90;63.30;;;;;;5045791;28;83433;-43
2022/05/30 08:20:50;;;;;;;;;;;18.90;63.30;;;;;;5045776;28;82115;-42
2022/05/30 08:23:17;;;;;;;;;;;18.90;63.00;;;;;;5045860;27;82316;-43
2022/05/30 08:25:43;;;;;;;;;;;18.90;63.20;;;;;;5050609;27;83690;-43
2022/05/30 08:28:08;;;;;;;;;;;18.90;63.20;;;;;;5049601;27;82472;-44
2022/05/30 08:30:34;;;;;;;;;;;18.90;63.10;;;;;;5049485;28;82205;-44
2022/05/30 08:33:00;;;;;;;;;;;18.90;63.30;;;;;;5049317;28;82265;-44
2022/05/30 08:35:25;;;;;;;;;;;18.90;63.30;;;;;;5049498;28;82512;-44
2022/05/30 08:37:55;;;;;;;;;;;18.90;63.10;;;;;;5048592;28;83093;-44
2022/05/30 08:43:05;;;;;;;;;;;19.00;63.00;;;;;;5049313;28;81828;-45
2022/05/30 08:45:31;;;;;;;;;;;19.00;63.20;;;;;;5048842;28;84196;-44
2022/05/30 08:47:58;;;;;;;;;;;19.00;63.20;;;;;;5051714;28;82121;-43
2022/05/30 08:50:45;;;;;;;;;;;19.00;63.00;;;;;;5048412;28;82792;-42
2022/05/30 08:53:31;;;;;;;;;;;19.00;63.00;;;;;;5048773;28;81931;-43
2022/05/30 08:56:16;;;;;;;;;;;19.00;63.00;;;;;;5049265;27;83853;-43
2022/05/30 08:58:41;;;;;;;;;;;19.00;63.00;;;;;;5048963;28;83096;-44
2022/05/30 09:01:13;;;;;;;;;;;19.00;63.00;;;;;;5048817;28;82238;-45
2022/05/30 09:03:42;;;;;;;;;;;19.00;63.00;;;;;;5047935;28;84509;-42
2022/05/30 09:06:22;;;;;;;;;;;19.10;63.00;;;;;;5048550;28;83171;-42
2022/05/30 09:08:51;;;;;;;;;;;19.10;62.90;;;;;;5048638;28;81870;-42
2022/05/30 09:11:32;;;;;;;;;;;19.10;62.90;;;;;;5051109;28;82957;-43
2022/05/30 09:14:00;;;;;;;;;;;19.10;62.80;;;;;;5048651;28;82831;-43
2022/05/30 09:16:28;;;;;;;;;;;19.10;62.80;;;;;;5048406;28;82745;-44
2022/05/30 09:18:54;;;;;;;;;;;19.10;62.90;;;;;;5044918;28;88008;-43
2022/05/30 09:21:21;;;;;;;;;;;19.10;62.80;;;;;;5045544;28;86494;-43
2022/05/30 09:23:47;;;;;;;;;;;19.20;63.10;;;;;;5045169;27;87254;-44
2022/05/30 09:26:16;;;;;;;;;;;19.20;62.90;;;;;;5044709;28;88162;-42
2022/05/30 09:28:43;;;;;;;;;;;19.20;62.80;;;;;;5044342;28;87826;-42
2022/05/30 09:31:13;;;;;;;;;;;19.20;62.90;;;;;;5044908;28;88729;-44
2022/05/30 09:33:41;;;;;;;;;;;19.20;62.80;;;;;;5047744;28;89261;-42
2022/05/30 09:36:18;;;;;;;;;;;19.20;62.90;;;;;;5044239;27;87360;-45
2022/05/30 09:38:45;;;;;;;;;;;19.20;62.70;;;;;;5044331;28;88521;-44
2022/05/30 09:41:12;;;;;;;;;;;19.30;62.70;;;;;;5044852;28;86996;-44
2022/05/30 09:43:58;;;;;;;;;;;19.30;62.70;;;;;;5044777;28;87509;-43
2022/05/30 09:46:38;;;;;;;;;;;19.30;62.70;;;;;;5044293;28;87268;-44
2022/05/30 09:49:05;;;;;;;;;;;19.30;62.70;;;;;;5044815;28;87201;-44
2022/05/30 09:51:30;;;;;;;;;;;19.30;62.80;;;;;;5043997;27;88839;-43
2022/05/30 09:53:56;;;;;;;;;;;19.30;62.70;;;;;;5043646;28;88815;-44
2022/05/30 09:56:23;;;;;;;;;;;19.30;62.70;;;;;;5047207;28;87117;-44
2022/05/30 09:58:58;;;;;;;;;;;19.30;62.70;;;;;;5044352;28;88000;-44
2022/05/30 10:01:24;;;;;;;;;;;19.40;62.70;;;;;;5044647;28;86860;-43
2022/05/30 10:03:52;;;;;;;;;;;19.40;62.70;;;;;;5044361;27;87189;-43
2022/05/30 10:06:19;;;;;;;;;;;19.40;62.70;;;;;;5043994;28;89311;-44
2022/05/30 10:08:46;;;;;;;;;;;19.40;62.60;;;;;;5044143;28;86997;-43
2022/05/30 10:11:30;;;;;;;;;;;19.40;62.70;;;;;;5044523;27;89041;-43
2022/05/30 10:13:55;;;;;;;;;;;19.40;62.60;;;;;;5043677;28;89390;-43
2022/05/30 10:16:29;;;;;;;;;;;19.40;62.60;;;;;;5044184;28;87071;-44
2022/05/30 10:18:55;;;;;;;;;;;19.50;62.60;;;;;;5046406;28;87945;-43
2022/05/30 10:21:22;;;;;;;;;;;19.50;62.60;;;;;;5044021;28;87047;-43
2022/05/30 10:29:46;;;;;;;;;;;19.50;62.60;;;;;;5044062;28;87070;-42
2022/05/30 10:32:11;;;;;;;;;;;19.50;62.60;;;;;;5044391;27;87437;-44
2022/05/30 10:34:51;;;;;;;;;;;19.50;62.60;;;;;;5043575;28;88155;-44
2022/05/30 10:37:35;;;;;;;;;;;19.60;62.60;;;;;;5044300;28;86266;-45
2022/05/30 10:40:00;;;;;;;;;;;19.60;62.60;;;;;;5046602;28;86966;-44
2022/05/30 10:42:31;;;;;;;;;;;19.60;62.60;;;;;;5043918;28;87147;-43
2022/05/30 10:45:02;;;;;;;;;;;19.60;62.50;;;;;;5043476;27;87975;-43
2022/05/30 10:47:35;;;;;;;;;;;19.60;62.50;;;;;;5043002;27;90338;-42
2022/05/30 10:50:04;;;;;;;;;;;19.70;62.50;;;;;;5043879;28;87000;-44
2022/05/30 10:52:46;;;;;;;;;;;19.70;62.50;;;;;;5043325;27;87559;-43
2022/05/30 10:55:29;;;;;;;;;;;19.70;62.50;;;;;;5043263;28;89615;-43
2022/05/30 10:58:06;;;;;;;;;;;19.70;62.50;;;;;;5043626;28;87221;-42
2022/05/30 11:00:33;;;;;;;;;;;19.70;62.50;;;;;;5043598;28;87528;-44
2022/05/30 11:03:17;;;;;;;;;;;19.70;62.50;;;;;;5046321;28;87402;-44
2022/05/30 11:05:43;;;;;;;;;;;19.70;62.40;;;;;;5043577;27;87335;-43
2022/05/30 11:08:34;;;;;;;;;;;19.80;62.50;;;;;;5043303;28;87851;-43
2022/05/30 11:11:10;;;;;;;;;;;19.80;62.60;;;;;;5040407;28;88227;-44
2022/05/30 11:13:59;;;;;;;;;;;19.80;62.60;;;;;;5043018;28;87474;-44
2022/05/30 11:16:39;;;;;;;;;;;19.80;62.50;;;;;;5043174;28;87921;-43
2022/05/30 11:19:12;;;;;;;;;;;19.90;62.50;;;;;;5043443;28;87079;-44
2022/05/30 11:21:45;;;;;;;;;;;19.90;62.50;;;;;;5042969;27;87745;-43
2022/05/30 11:24:11;;;;;;;;;;;19.90;62.40;;;;;;5043240;28;88257;-42
2022/05/30 11:26:39;;;;;;;;;;;19.90;62.40;;;;;;5046343;28;87129;-44
2022/05/30 11:29:18;;;;;;;;;;;19.90;62.40;;;;;;5043431;28;87474;-44
2022/05/30 11:31:58;;;;;;;;;;;19.90;62.50;;;;;;5042972;28;87146;-44
2022/05/30 11:34:35;;;;;;;;;;;20.00;62.50;;;;;;5043187;28;87516;-43
2022/05/30 11:37:10;;;;;;;;;;;20.00;62.50;;;;;;5042198;28;89079;-43
2022/05/30 11:39:39;;;;;;;;;;;20.00;62.40;;;;;;5043328;28;86947;-43
2022/05/30 11:42:08;;;;;;;;;;;20.00;62.30;;;;;;5043130;28;87506;-43
2022/05/30 11:44:52;;;;;;;;;;;20.10;62.30;;;;;;5042572;28;89392;-44
2022/05/30 11:47:20;;;;;;;;;;;20.10;62.30;;;;;;5042546;28;87132;-44
2022/05/30 11:50:04;;;;;;;;;;;20.10;62.40;;;;;;5045803;28;86996;-44
2022/05/30 11:52:39;;;;;;;;;;;20.10;62.30;;;;;;5042516;27;87190;-43
2022/05/30 11:55:14;;;;;;;;;;;20.10;62.30;;;;;;5043382;28;87421;-43
2022/05/30 11:57:58;;;;;;;;;;;20.10;62.30;;;;;;5042359;28;89550;-42
2022/05/30 12:00:45;;;;;;;;;;;20.20;62.30;;;;;;5042166;27;87108;-43
2022/05/30 12:03:25;;;;;;;;;;;20.20;62.30;;;;;;5042168;27;88356;-44
2022/05/30 12:06:10;;;;;;;;;;;20.20;62.40;;;;;;5042291;28;87979;-43
2022/05/30 12:08:47;;;;;;;;;;;20.20;63.00;;;;;;5042775;27;87168;-43
2022/05/30 12:11:21;;;;;;;;;;;20.30;62.40;;;;;;5042785;28;87005;-45
2022/05/30 12:14:02;;;;;;;;;;;20.30;62.40;;;;;;5045012;28;89396;-43
2022/05/30 12:16:46;;;;;;;;;;;20.30;62.40;;;;;;5042640;28;87458;-43
2022/05/30 12:24:59;;;;;;;;;;;20.40;62.30;;;;;;5040295;28;87257;-44
2022/05/30 12:27:32;;;;;;;;;;;20.40;62.50;;;;;;5041999;28;87991;-44
2022/05/30 12:29:59;;;;;;;;;;;20.40;62.50;;;;;;5041487;28;87972;-42
2022/05/30 12:32:29;;;;;;;;;;;20.40;62.50;;;;;;5042403;28;88347;-43
2022/05/30 12:35:01;;;;;;;;;;;20.40;62.50;;;;;;5042094;28;87985;-43
2022/05/30 12:37:43;;;;;;;;;;;20.40;62.50;;;;;;5045020;28;86981;-42
2022/05/30 12:40:26;;;;;;;;;;;20.50;62.40;;;;;;5041901;28;88311;-43
2022/05/30 12:43:06;;;;;;;;;;;20.50;62.50;;;;;;5041924;28;87018;-44
2022/05/30 12:45:42;;;;;;;;;;;20.50;62.40;;;;;;5041719;28;88816;-43
2022/05/30 12:48:12;;;;;;;;;;;20.50;62.40;;;;;;5042034;28;88883;-44
2022/05/30 12:50:57;;;;;;;;;;;20.60;62.40;;;;;;5041714;28;87043;-44
2022/05/30 12:53:24;;;;;;;;;;;20.60;62.40;;;;;;5041176;27;87384;-41
2022/05/30 12:55:51;;;;;;;;;;;20.50;62.10;;;;;;5040801;28;89015;-41
2022/05/30 12:58:42;;;;;;;;;;;20.60;64.40;;;;;;5044987;28;87115;-41
2022/05/30 13:01:21;;;;;;;;;;;20.70;63.80;;;;;;5041515;28;86965;-38
2022/05/30 13:04:07;;;;;;;;;;;20.90;65.40;;;;;;5042098;28;87118;-38
2022/05/30 13:06:41;;;;;;;;;;;20.90;62.60;;;;;;5041648;27;89037;-43
2022/05/30 13:09:13;;;;;;;;;;;20.90;61.10;;;;;;5041636;28;88168;-39
2022/05/30 13:11:57;;;;;;;;;;;20.90;62.50;;;;;;5042899;28;86907;-42
2022/05/30 13:14:28;;;;;;;;;;;20.90;62.60;;;;;;5046158;27;87651;-40
2022/05/30 13:16:59;;;;;;;;;;;21.00;62.40;;;;;;5044866;28;87616;-43
2022/05/30 13:19:24;;;;;;;;;;;21.10;61.50;;;;;;5045361;28;86963;-44
2022/05/30 13:21:50;;;;;;;;;;;21.10;62.30;;;;;;5047318;28;87918;-43
2022/05/30 13:24:26;;;;;;;;;;;21.20;62.70;;;;;;5045074;28;87107;-44
2022/05/30 13:26:52;;;;;;;;;;;21.20;62.90;;;;;;5045180;28;88702;-43
2022/05/30 13:29:18;;;;;;;;;;;21.20;63.20;;;;;;5044319;28;88017;-50
2022/05/30 13:31:48;;;;;;;;;;;21.30;63.20;;;;;;5044621;28;87231;-43
2022/05/30 13:34:15;;;;;;;;;;;21.40;62.20;;;;;;5043177;28;88769;-45
2022/05/30 13:36:41;;;;;;;;;;;21.40;62.80;;;;;;5042946;28;87938;-45
2022/05/30 13:39:07;;;;;;;;;;;;;;;;;;5044935;28;86379;-44
2022/05/30 13:41:33;;;;;;;;;;;;;;;;;;5044465;27;87825;-43
2022/05/30 13:43:59;;;;;;;;;;;;;;;;;;5047734;27;88097;-46
2022/05/30 13:46:25;;;;;;;;;;;;;;;;;;5044330;27;89265;-46
2022/05/30 13:48:52;;;;;;;;;;;;;;;;;;5044918;27;87785;-46
2022/05/30 13:51:18;;;;;;;;;;;;;;;;;;5042983;28;87463;-45
2022/05/30 13:53:44;;;;;;;;;;;;;;;;;;5042753;27;87039;-46
2022/05/30 13:56:10;;;;;;;;;;;;;;;;;;5042588;27;88715;-43
2022/05/30 13:58:36;;;;;;;;;;;;;;;;;;5043676;27;87161;-45
2022/05/30 14:01:02;;;;;;;;;;;;;;;;;;5044041;28;87408;-44
2022/05/30 14:03:28;;;;;;;;;;;;;;;;;;5044452;27;87132;-43
2022/05/30 14:05:54;;;;;;;;;;;;;;;;;;5047304;27;87056;-43
2022/05/30 14:08:20;;;;;;;;;;;;;;;;;;5044155;27;89332;-44
2022/05/30 14:10:46;;;;;;;;;;;;;;;;;;5044031;27;88123;-44
2022/05/30 14:13:12;;;;;;;;;;;;;;;;;;5044346;27;88159;-48
2022/05/30 14:15:38;;;;;;;;;;;;;;;;;;5044110;27;88767;-45
2022/05/30 14:18:04;;;;;;;;;;;;;;;;;;5044523;27;87090;-47
2022/05/30 14:20:30;;;;;;;;;;;;;;;;;;5044302;27;86976;-49
2022/05/30 14:22:57;;;;;;;;;;;;;;;;;;5043924;28;88039;-45
2022/05/30 14:25:23;;;;;;;;;;;;;;;;;;5044417;27;86992;-45
2022/05/30 14:27:49;;;;;;;;;;;;;;;;;;5047603;27;86185;-46
2022/05/30 14:30:15;;;;;;;;;;;;;;;;;;5044248;27;87199;-45
2022/05/30 14:32:41;;;;;;;;;;;;;;;;;;5044317;27;86923;-44
2022/05/30 14:35:07;;;;;;;;;;;;;;;;;;5042986;27;89601;-45
2022/05/30 14:37:34;;;;;;;;;;;;;;;;;;5044533;27;87875;-45
2022/05/30 14:40:00;;;;;;;;;;;;;;;;;;5044041;27;88561;-46
2022/05/30 14:42:26;;;;;;;;;;;;;;;;;;5043659;27;89543;-45
2022/05/30 14:44:52;;;;;;;;;;;;;;;;;;5043703;27;87769;-45
2022/05/30 14:47:18;;;;;;;;;;;;;;;;;;5045218;28;89977;-44
2022/05/30 14:49:44;;;;;;;;;;;;;;;;;;5043965;27;87210;-43
2022/05/30 14:52:10;;;;;;;;;;;;;;;;;;5044174;27;86355;-45
2022/05/30 14:54:36;;;;;;;;;;;;;;;;;;5043417;27;89172;-47
2022/05/30 14:57:01;;;;;;;;;;;;;;;;;;5043961;27;87193;-44
2022/05/30 14:59:27;;;;;;;;;;;;;;;;;;5043175;27;88013;-43
2022/05/30 15:01:53;;;;;;;;;;;;;;;;;;5043518;28;87213;-44
2022/05/30 15:04:19;;;;;;;;;;;;;;;;;;5043737;27;87148;-43